This is the latest recevied weather packets stored in our database for station/object KO5S. If no packets are shown the sender has not sent any weather packets the latest 10 day(s).
| Time | Temp. | Humidity | Pressure | Rain* | Wind** | Luminosity | Snow |
|---|---|---|---|---|---|---|---|
| 1777616295 | 18.89° C | 92% | 1009.1 hPa | 0 mm | - | - | - |
| 1777614495 | 18.89° C | 92% | 1009.1 hPa | 0 mm | - | - | - |
| 1777613295 | 19.44° C | 92% | 1008.9 hPa | 0 mm | - | - | - |
| 1777609096 | 19.44° C | 92% | 1008.6 hPa | 0 mm | - | - | - |
| 1777606696 | 20° C | 92% | 1008.1 hPa | 0 mm | - | - | - |
| 1777604896 | 20° C | 92% | 1007.8 hPa | 0.25 mm | - | - | - |
| 1777604296 | 20° C | 92% | 1007.8 hPa | 0.25 mm | - | - | - |
| 1777594696 | 22.22° C | 88% | 1007.3 hPa | 0 mm | - | - | - |
| 1777594096 | 22.22° C | 88% | 1007 hPa | 0 mm | - | - | - |
| 1777592896 | 22.78° C | 87% | 1007.5 hPa | 0 mm | - | - | - |
| 1777589896 | 23.33° C | 86% | 1006.6 hPa | 0 mm | - | - | - |
| 1777589296 | 23.33° C | 86% | 1006.8 hPa | 0 mm | - | - | - |
| 1777588096 | 23.89° C | 87% | 1006.8 hPa | 0 mm | - | - | - |
| 1777587516 | 23.89° C | 87% | 1006.9 hPa | 0 mm | - | - | - |
| 1777585096 | 24.44° C | 85% | 1006.5 hPa | 0 mm | - | - | - |
| 1777582116 | 23.89° C | 87% | 1006.5 hPa | 0 mm | - | - | - |
| 1777580896 | 23.89° C | 87% | 1006.6 hPa | 0 mm | - | - | - |
| 1777577296 | 23.89° C | 88% | 1007.7 hPa | 0.25 mm | - | - | - |
| 1777572496 | 23.89° C | 87% | 1008.2 hPa | 0 mm | - | - | - |
| 1777571896 | 23.89° C | 87% | 1008.2 hPa | 0 mm | - | - | - |
| 1777566496 | 21.67° C | 91% | 1008.8 hPa | 1.02 mm | - | - | - |
| 1777565317 | 21.67° C | 91% | 1009.3 hPa | 0.76 mm | - | - | - |
| 1777562295 | 21.67° C | 90% | 1009.2 hPa | 0 mm | - | - | - |
| 1777555715 | 20° C | 93% | 1009.2 hPa | 0 mm | - | - | - |
| 1777552095 | 19.44° C | 93% | 1008.8 hPa | 0 mm | - | - | - |
* Rain latest hour (hover to see other rain measurements)
** Current wind speed in m/s (hover to see current wind gust speed)